Terminal Aerodrome Forecast
Issued by NWS

Home | Current Version | Previous Version | Text Only | Print | Product List | Glossary On
Versions: 1 2 3 4 5 6 7 8 9 10 11 12 13 14 15 16 17
000
FTUS45 KFGZ 282300
TAFPRC
TAF
KPRC 282334Z 2900/2924 VRB05KT P6SM SCT050 BKN200
     FM290500 20005KT P6SM BKN140 OVC180
     FM292000 09008KT P6SM BKN120 OVC150=

USA.gov is the U.S. government's official web portal to all federal, state and local government web resources and services.